sensor_id;sensor_type;location;lat;lon;timestamp;pressure;altitude;pressure_sealevel;temperature;humidity
6034;BME280;3045;43.226;27.858;2024-02-14T00:02:25;145863.81;;;10.07;100.00
6034;BME280;3045;43.226;27.858;2024-02-14T00:04:52;147541.97;;;9.91;100.00
6034;BME280;3045;43.226;27.858;2024-02-14T00:07:19;148004.63;;;10.16;100.00
6034;BME280;3045;43.226;27.858;2024-02-14T00:09:46;148502.44;;;9.79;100.00
6034;BME280;3045;43.226;27.858;2024-02-14T00:12:14;148589.63;;;10.14;100.00
6034;BME280;3045;43.226;27.858;2024-02-14T00:14:41;148590.88;;;10.14;100.00
6034;BME280;3045;43.226;27.858;2024-02-14T00:17:08;148568.13;;;10.05;100.00
6034;BME280;3045;43.226;27.858;2024-02-14T00:19:37;148588.34;;;10.13;100.00
6034;BME280;3045;43.226;27.858;2024-02-14T00:22:05;148616.19;;;10.24;100.00
6034;BME280;3045;43.226;27.858;2024-02-14T00:24:32;148599.78;;;10.18;100.00
6034;BME280;3045;43.226;27.858;2024-02-14T00:27:01;148448.72;;;10.17;100.00
6034;BME280;3045;43.226;27.858;2024-02-14T00:29:29;146009.06;;;10.23;100.00
6034;BME280;3045;43.226;27.858;2024-02-14T00:31:56;141618.91;;;10.26;100.00
6034;BME280;3045;43.226;27.858;2024-02-14T00:34:23;139942.84;;;10.22;100.00
6034;BME280;3045;43.226;27.858;2024-02-14T00:36:51;134100.53;;;10.27;100.00
6034;BME280;3045;43.226;27.858;2024-02-14T00:39:18;129181.84;;;10.08;100.00
6034;BME280;3045;43.226;27.858;2024-02-14T00:41:46;121017.56;;;10.11;100.00
6034;BME280;3045;43.226;27.858;2024-02-14T00:44:13;114385.22;;;10.00;100.00
6034;BME280;3045;43.226;27.858;2024-02-14T00:46:42;108430.44;;;9.91;100.00
6034;BME280;3045;43.226;27.858;2024-02-14T00:49:10;102482.31;;;9.79;100.00
6034;BME280;3045;43.226;27.858;2024-02-14T00:51:38;100520.38;;;9.85;100.00
6034;BME280;3045;43.226;27.858;2024-02-14T00:54:07;100507.50;;;9.78;100.00
6034;BME280;3045;43.226;27.858;2024-02-14T00:56:34;101518.16;;;9.92;100.00
6034;BME280;3045;43.226;27.858;2024-02-14T00:59:01;104153.16;;;9.93;100.00
6034;BME280;3045;43.226;27.858;2024-02-14T01:01:28;104805.31;;;9.90;100.00
6034;BME280;3045;43.226;27.858;2024-02-14T01:03:55;104117.63;;;9.73;100.00
6034;BME280;3045;43.226;27.858;2024-02-14T01:06:22;102807.75;;;9.77;100.00
6034;BME280;3045;43.226;27.858;2024-02-14T01:08:50;100144.59;;;9.57;100.00
6034;BME280;3045;43.226;27.858;2024-02-14T01:11:18;94907.06;;;9.68;100.00
6034;BME280;3045;43.226;27.858;2024-02-14T01:13:45;95905.66;;;9.63;100.00
6034;BME280;3045;43.226;27.858;2024-02-14T01:16:13;94378.06;;;9.59;100.00
6034;BME280;3045;43.226;27.858;2024-02-14T01:18:40;94904.63;;;9.66;100.00
6034;BME280;3045;43.226;27.858;2024-02-14T01:21:07;94117.81;;;9.64;100.00
6034;BME280;3045;43.226;27.858;2024-02-14T01:23:35;91476.22;;;9.53;100.00
6034;BME280;3045;43.226;27.858;2024-02-14T01:26:02;86585.53;;;9.52;100.00
6034;BME280;3045;43.226;27.858;2024-02-14T01:28:32;83437.84;;;9.51;100.00
6034;BME280;3045;43.226;27.858;2024-02-14T01:30:59;82055.63;;;9.53;100.00
6034;BME280;3045;43.226;27.858;2024-02-14T01:33:26;77828.44;;;9.48;100.00
6034;BME280;3045;43.226;27.858;2024-02-14T01:35:53;69451.03;;;9.42;100.00
6034;BME280;3045;43.226;27.858;2024-02-14T01:38:27;65798.91;;;9.46;100.00
6034;BME280;3045;43.226;27.858;2024-02-14T01:41:01;66450.09;;;9.46;100.00
6034;BME280;3045;43.226;27.858;2024-02-14T01:43:31;64163.44;;;9.37;100.00
6034;BME280;3045;43.226;27.858;2024-02-14T01:46:04;61899.28;;;9.47;100.00
6034;BME280;3045;43.226;27.858;2024-02-14T01:48:33;63521.56;;;9.45;100.00
6034;BME280;3045;43.226;27.858;2024-02-14T01:51:01;65473.63;;;9.46;100.00
6034;BME280;3045;43.226;27.858;2024-02-14T01:53:30;66447.81;;;9.44;100.00
6034;BME280;3045;43.226;27.858;2024-02-14T01:55:59;67747.06;;;9.42;100.00
6034;BME280;3045;43.226;27.858;2024-02-14T01:58:26;69046.75;;;9.40;100.00
6034;BME280;3045;43.226;27.858;2024-02-14T02:00:55;70355.94;;;9.46;100.00
6034;BME280;3045;43.226;27.858;2024-02-14T02:03:23;73931.19;;;9.38;100.00
6034;BME280;3045;43.226;27.858;2024-02-14T02:05:50;74892.66;;;9.25;100.00
6034;BME280;3045;43.226;27.858;2024-02-14T02:08:19;70982.34;;;9.25;100.00
6034;BME280;3045;43.226;27.858;2024-02-14T02:10:46;73605.81;;;9.39;100.00
6034;BME280;3045;43.226;27.858;2024-02-14T02:13:13;75525.31;;;9.10;100.00
6034;BME280;3045;43.226;27.858;2024-02-14T02:15:41;80453.66;;;9.35;100.00
6034;BME280;3045;43.226;27.858;2024-02-14T02:18:11;85029.44;;;9.35;100.00
6034;BME280;3045;43.226;27.858;2024-02-14T02:20:38;89286.91;;;9.37;100.00
6034;BME280;3045;43.226;27.858;2024-02-14T02:23:10;96167.38;;;9.35;100.00
6034;BME280;3045;43.226;27.858;2024-02-14T02:25:40;103055.78;;;9.30;100.00
6034;BME280;3045;43.226;27.858;2024-02-14T02:28:08;104034.16;;;9.26;100.00
6034;BME280;3045;43.226;27.858;2024-02-14T02:30:35;105658.75;;;9.14;100.00
6034;BME280;3045;43.226;27.858;2024-02-14T02:33:03;109612.44;;;9.17;100.00
6034;BME280;3045;43.226;27.858;2024-02-14T02:35:30;111242.19;;;9.08;100.00
6034;BME280;3045;43.226;27.858;2024-02-14T02:37:57;109599.34;;;9.10;100.00
6034;BME280;3045;43.226;27.858;2024-02-14T02:40:26;111256.41;;;9.15;100.00
6034;BME280;3045;43.226;27.858;2024-02-14T02:42:53;115203.97;;;9.11;100.00
6034;BME280;3045;43.226;27.858;2024-02-14T02:45:20;114179.72;;;8.93;100.00
6034;BME280;3045;43.226;27.858;2024-02-14T02:47:47;106270.34;;;8.89;100.00
6034;BME280;3045;43.226;27.858;2024-02-14T02:50:17;102667.47;;;8.96;100.00
6034;BME280;3045;43.226;27.858;2024-02-14T02:52:45;103971.16;;;8.90;100.00
6034;BME280;3045;43.226;27.858;2024-02-14T02:55:12;104945.44;;;8.83;100.00
6034;BME280;3045;43.226;27.858;2024-02-14T02:57:43;103940.97;;;8.73;100.00
6034;BME280;3045;43.226;27.858;2024-02-14T03:00:11;104271.28;;;8.74;100.00
6034;BME280;3045;43.226;27.858;2024-02-14T03:02:39;106876.06;;;8.60;100.00
6034;BME280;3045;43.226;27.858;2024-02-14T03:05:10;105231.91;;;8.59;100.00
6034;BME280;3045;43.226;27.858;2024-02-14T03:07:43;109838.63;;;8.61;100.00
6034;BME280;3045;43.226;27.858;2024-02-14T03:10:10;113130.28;;;8.61;100.00
6034;BME280;3045;43.226;27.858;2024-02-14T03:12:38;117403.06;;;8.56;100.00
6034;BME280;3045;43.226;27.858;2024-02-14T03:15:08;118041.38;;;8.45;100.00
6034;BME280;3045;43.226;27.858;2024-02-14T03:17:36;115403.81;;;8.45;100.00
6034;BME280;3045;43.226;27.858;2024-02-14T03:20:03;117375.03;;;8.42;100.00
6034;BME280;3045;43.226;27.858;2024-02-14T03:22:35;114393.19;;;8.33;100.00
6034;BME280;3045;43.226;27.858;2024-02-14T03:25:03;113395.72;;;8.28;100.00
6034;BME280;3045;43.226;27.858;2024-02-14T03:27:31;109448.88;;;8.28;100.00
6034;BME280;3045;43.226;27.858;2024-02-14T03:29:58;106145.19;;;8.19;100.00
6034;BME280;3045;43.226;27.858;2024-02-14T03:32:31;104503.38;;;8.19;100.00
6034;BME280;3045;43.226;27.858;2024-02-14T03:34:58;103194.03;;;8.21;100.00
6034;BME280;3045;43.226;27.858;2024-02-14T03:37:26;107463.81;;;8.21;100.00
6034;BME280;3045;43.226;27.858;2024-02-14T03:39:53;108440.41;;;8.16;100.00
6034;BME280;3045;43.226;27.858;2024-02-14T03:42:20;106481.84;;;8.23;100.00
6034;BME280;3045;43.226;27.858;2024-02-14T03:44:47;107787.78;;;8.19;100.00
6034;BME280;3045;43.226;27.858;2024-02-14T03:47:14;110736.94;;;8.14;100.00
6034;BME280;3045;43.226;27.858;2024-02-14T03:49:43;113389.94;;;8.25;100.00
6034;BME280;3045;43.226;27.858;2024-02-14T03:52:10;110409.97;;;8.15;100.00
6034;BME280;3045;43.226;27.858;2024-02-14T03:54:37;113394.75;;;8.27;100.00
6034;BME280;3045;43.226;27.858;2024-02-14T03:57:04;111749.31;;;8.27;100.00
6034;BME280;3045;43.226;27.858;2024-02-14T03:59:36;111394.69;;;8.14;100.00
6034;BME280;3045;43.226;27.858;2024-02-14T04:02:04;111086.63;;;8.25;100.00
6034;BME280;3045;43.226;27.858;2024-02-14T04:04:32;114059.06;;;8.31;100.00
6034;BME280;3045;43.226;27.858;2024-02-14T04:07:02;117338.97;;;8.23;100.00
6034;BME280;3045;43.226;27.858;2024-02-14T04:09:29;121647.09;;;8.34;100.00
6034;BME280;3045;43.226;27.858;2024-02-14T04:11:56;124637.22;;;8.43;100.00
6034;BME280;3045;43.226;27.858;2024-02-14T04:14:23;127283.88;;;8.45;100.00
6034;BME280;3045;43.226;27.858;2024-02-14T04:16:50;130267.19;;;8.43;100.00
6034;BME280;3045;43.226;27.858;2024-02-14T04:19:18;127243.72;;;8.26;100.00
6034;BME280;3045;43.226;27.858;2024-02-14T04:21:45;130437.59;;;8.25;100.00
6034;BME280;3045;43.226;27.858;2024-02-14T04:24:14;135011.69;;;8.39;100.00
6034;BME280;3045;43.226;27.858;2024-02-14T04:26:41;134539.59;;;8.25;100.00
6034;BME280;3045;43.226;27.858;2024-02-14T04:29:08;129105.91;;;8.32;100.00
6034;BME280;3045;43.226;27.858;2024-02-14T04:31:36;127565.50;;;8.22;100.00
6034;BME280;3045;43.226;27.858;2024-02-14T04:34:03;127701.31;;;8.41;100.00
6034;BME280;3045;43.226;27.858;2024-02-14T04:36:33;139915.91;;;8.42;100.00
6034;BME280;3045;43.226;27.858;2024-02-14T04:39:01;147325.28;;;8.41;100.00
6034;BME280;3045;43.226;27.858;2024-02-14T04:41:30;138724.13;;;8.30;100.00
6034;BME280;3045;43.226;27.858;2024-02-14T04:43:57;135966.75;;;8.39;100.00
6034;BME280;3045;43.226;27.858;2024-02-14T04:46:24;134350.47;;;8.26;100.00
6034;BME280;3045;43.226;27.858;2024-02-14T04:48:51;135996.47;;;8.49;100.00
6034;BME280;3045;43.226;27.858;2024-02-14T04:51:17;145819.72;;;8.50;100.00
6034;BME280;3045;43.226;27.858;2024-02-14T04:53:44;144372.00;;;8.54;100.00
6034;BME280;3045;43.226;27.858;2024-02-14T04:56:11;147820.00;;;8.42;100.00
6034;BME280;3045;43.226;27.858;2024-02-14T04:58:40;147055.06;;;8.43;100.00
6034;BME280;3045;43.226;27.858;2024-02-14T05:01:07;143793.69;;;8.43;100.00
6034;BME280;3045;43.226;27.858;2024-02-14T05:03:34;144916.00;;;8.53;100.00
6034;BME280;3045;43.226;27.858;2024-02-14T05:06:02;147875.13;;;8.51;100.00
6034;BME280;3045;43.226;27.858;2024-02-14T05:08:31;148172.91;;;8.47;100.00
6034;BME280;3045;43.226;27.858;2024-02-14T05:10:59;147026.50;;;8.43;100.00
6034;BME280;3045;43.226;27.858;2024-02-14T05:13:26;145084.50;;;8.44;100.00
6034;BME280;3045;43.226;27.858;2024-02-14T05:15:54;145868.16;;;8.46;100.00
6034;BME280;3045;43.226;27.858;2024-02-14T05:18:21;146641.25;;;8.40;100.00
6034;BME280;3045;43.226;27.858;2024-02-14T05:20:49;148181.72;;;8.50;100.00
6034;BME280;3045;43.226;27.858;2024-02-14T05:23:16;148172.91;;;8.47;100.00
6034;BME280;3045;43.226;27.858;2024-02-14T05:25:44;147424.84;;;8.31;100.00
6034;BME280;3045;43.226;27.858;2024-02-14T05:28:11;143457.19;;;8.46;100.00
6034;BME280;3045;43.226;27.858;2024-02-14T05:30:40;146303.47;;;8.42;100.00
6034;BME280;3045;43.226;27.858;2024-02-14T05:33:08;147484.91;;;8.57;100.00
6034;BME280;3045;43.226;27.858;2024-02-14T05:35:36;148174.16;;;8.47;100.00
6034;BME280;3045;43.226;27.858;2024-02-14T05:38:03;148218.34;;;8.65;100.00
6034;BME280;3045;43.226;27.858;2024-02-14T05:40:33;148198.16;;;8.57;100.00
6034;BME280;3045;43.226;27.858;2024-02-14T05:43:03;148219.63;;;8.65;100.00
6034;BME280;3045;43.226;27.858;2024-02-14T05:45:32;148234.72;;;8.71;100.00
6034;BME280;3045;43.226;27.858;2024-02-14T05:47:59;148247.34;;;8.77;100.00
6034;BME280;3045;43.226;27.858;2024-02-14T05:50:28;148246.09;;;8.76;100.00
6034;BME280;3045;43.226;27.858;2024-02-14T05:52:55;148224.63;;;8.67;100.00
6034;BME280;3045;43.226;27.858;2024-02-14T05:55:23;148252.38;;;8.79;100.00
6034;BME280;3045;43.226;27.858;2024-02-14T05:57:50;148251.16;;;8.78;100.00
6034;BME280;3045;43.226;27.858;2024-02-14T06:00:18;148302.91;;;8.99;100.00
6034;BME280;3045;43.226;27.858;2024-02-14T06:02:46;148232.19;;;8.70;100.00
6034;BME280;3045;43.226;27.858;2024-02-14T06:05:13;148294.09;;;8.95;100.00
6034;BME280;3045;43.226;27.858;2024-02-14T06:07:42;148286.47;;;8.92;100.00
6034;BME280;3045;43.226;27.858;2024-02-14T06:10:11;148286.47;;;8.92;100.00
6034;BME280;3045;43.226;27.858;2024-02-14T06:12:38;148270.09;;;8.86;100.00
6034;BME280;3045;43.226;27.858;2024-02-14T06:15:07;148328.13;;;9.09;100.00
6034;BME280;3045;43.226;27.858;2024-02-14T06:17:34;148336.97;;;9.12;100.00
6034;BME280;3045;43.226;27.858;2024-02-14T06:20:01;148359.69;;;9.22;100.00
6034;BME280;3045;43.226;27.858;2024-02-14T06:22:32;148384.97;;;9.32;100.00
6034;BME280;3045;43.226;27.858;2024-02-14T06:25:01;148377.41;;;9.29;100.00
6034;BME280;3045;43.226;27.858;2024-02-14T06:27:30;148372.31;;;9.27;100.00
6034;BME280;3045;43.226;27.858;2024-02-14T06:29:58;148387.50;;;9.33;100.00
6034;BME280;3045;43.226;27.858;2024-02-14T06:32:26;148384.97;;;9.32;100.00
6034;BME280;3045;43.226;27.858;2024-02-14T06:34:53;148386.22;;;9.32;100.00
6034;BME280;3045;43.226;27.858;2024-02-14T06:37:20;148366.03;;;9.24;100.00
6034;BME280;3045;43.226;27.858;2024-02-14T06:40:07;148367.31;;;9.25;100.00
6034;BME280;3045;43.226;27.858;2024-02-14T06:42:35;148353.41;;;9.19;100.00
6034;BME280;3045;43.226;27.858;2024-02-14T06:45:03;148392.53;;;9.35;100.00
6034;BME280;3045;43.226;27.858;2024-02-14T06:47:30;148412.72;;;9.43;100.00
6034;BME280;3045;43.226;27.858;2024-02-14T06:49:58;148398.88;;;9.37;100.00
6034;BME280;3045;43.226;27.858;2024-02-14T06:52:25;148453.13;;;9.59;100.00
6034;BME280;3045;43.226;27.858;2024-02-14T06:54:52;148436.72;;;9.52;100.00
6034;BME280;3045;43.226;27.858;2024-02-14T06:57:20;148474.59;;;9.68;100.00
6034;BME280;3045;43.226;27.858;2024-02-14T06:59:47;148492.31;;;9.75;100.00
6034;BME280;3045;43.226;27.858;2024-02-14T07:02:14;148507.47;;;9.81;100.00
6034;BME280;3045;43.226;27.858;2024-02-14T07:04:43;148517.56;;;9.85;100.00
6034;BME280;3045;43.226;27.858;2024-02-14T07:07:12;148520.09;;;9.86;100.00
6034;BME280;3045;43.226;27.858;2024-02-14T07:09:39;148522.63;;;9.87;100.00
6034;BME280;3045;43.226;27.858;2024-02-14T07:12:06;148537.81;;;9.93;100.00
6034;BME280;3045;43.226;27.858;2024-02-14T07:14:35;148547.91;;;9.97;100.00
6034;BME280;3045;43.226;27.858;2024-02-14T07:17:02;148570.63;;;10.06;100.00
6034;BME280;3045;43.226;27.858;2024-02-14T07:19:30;148517.56;;;9.85;100.00
6034;BME280;3045;43.226;27.858;2024-02-14T07:21:57;148554.22;;;9.99;100.00
6034;BME280;3045;43.226;27.858;2024-02-14T07:24:24;148592.09;;;10.15;100.00
6034;BME280;3045;43.226;27.858;2024-02-14T07:26:52;148565.59;;;10.04;100.00
6034;BME280;3045;43.226;27.858;2024-02-14T07:29:19;148565.59;;;10.04;100.00
6034;BME280;3045;43.226;27.858;2024-02-14T07:31:47;148576.97;;;10.08;100.00
6034;BME280;3045;43.226;27.858;2024-02-14T07:34:17;148576.97;;;10.08;100.00
6034;BME280;3045;43.226;27.858;2024-02-14T07:36:48;148545.38;;;9.96;100.00
6034;BME280;3045;43.226;27.858;2024-02-14T07:39:15;148554.22;;;9.99;100.00
6034;BME280;3045;43.226;27.858;2024-02-14T07:41:42;148541.56;;;9.94;100.00
6034;BME280;3045;43.226;27.858;2024-02-14T07:44:09;148522.63;;;9.87;100.00
6034;BME280;3045;43.226;27.858;2024-02-14T07:46:36;148527.66;;;9.89;100.00
6034;BME280;3045;43.226;27.858;2024-02-14T07:49:06;148499.88;;;9.78;100.00
6034;BME280;3045;43.226;27.858;2024-02-14T07:51:34;148521.38;;;9.86;100.00
6034;BME280;3045;43.226;27.858;2024-02-14T07:54:03;148525.19;;;9.88;100.00
6034;BME280;3045;43.226;27.858;2024-02-14T07:56:30;148537.81;;;9.93;100.00
6034;BME280;3045;43.226;27.858;2024-02-14T07:58:57;148542.84;;;9.95;100.00
6034;BME280;3045;43.226;27.858;2024-02-14T08:01:29;148547.91;;;9.97;100.00
6034;BME280;3045;43.226;27.858;2024-02-14T08:03:58;148454.41;;;9.59;100.00
6034;BME280;3045;43.226;27.858;2024-02-14T08:06:30;148532.75;;;9.91;100.00
6034;BME280;3045;43.226;27.858;2024-02-14T08:08:57;148523.91;;;9.87;100.00
6034;BME280;3045;43.226;27.858;2024-02-14T08:11:27;148527.66;;;9.89;100.00
6034;BME280;3045;43.226;27.858;2024-02-14T08:13:54;148532.75;;;9.91;100.00
6034;BME280;3045;43.226;27.858;2024-02-14T08:16:46;148502.44;;;9.79;100.00
6034;BME280;3045;43.226;27.858;2024-02-14T08:19:17;148542.84;;;9.95;100.00
6034;BME280;3045;43.226;27.858;2024-02-14T08:21:46;148560.50;;;10.02;100.00
6034;BME280;3045;43.226;27.858;2024-02-14T08:24:14;148558.03;;;10.01;100.00
6034;BME280;3045;43.226;27.858;2024-02-14T08:26:54;148556.75;;;10.00;100.00
6034;BME280;3045;43.226;27.858;2024-02-14T08:29:24;148556.75;;;10.00;100.00
6034;BME280;3045;43.226;27.858;2024-02-14T08:31:54;148568.13;;;10.05;100.00
6034;BME280;3045;43.226;27.858;2024-02-14T08:34:22;148541.56;;;9.94;100.00
6034;BME280;3045;43.226;27.858;2024-02-14T08:37:00;148530.19;;;9.90;100.00
6034;BME280;3045;43.226;27.858;2024-02-14T08:39:27;148547.91;;;9.97;100.00
6034;BME280;3045;43.226;27.858;2024-02-14T08:41:54;148571.88;;;10.06;100.00
6034;BME280;3045;43.226;27.858;2024-02-14T08:44:21;148587.06;;;10.13;100.00
6034;BME280;3045;43.226;27.858;2024-02-14T08:46:48;148576.97;;;10.08;100.00
6034;BME280;3045;43.226;27.858;2024-02-14T08:49:15;148542.84;;;9.95;100.00
6034;BME280;3045;43.226;27.858;2024-02-14T08:51:42;148595.97;;;10.16;100.00
6034;BME280;3045;43.226;27.858;2024-02-14T08:54:13;148585.81;;;10.12;100.00
6034;BME280;3045;43.226;27.858;2024-02-14T08:56:41;148592.09;;;10.15;100.00
6034;BME280;3045;43.226;27.858;2024-02-14T08:59:08;148613.63;;;10.23;100.00
6034;BME280;3045;43.226;27.858;2024-02-14T09:01:37;148608.59;;;10.21;100.00
6034;BME280;3045;43.226;27.858;2024-02-14T09:04:04;148641.47;;;10.34;100.00
6034;BME280;3045;43.226;27.858;2024-02-14T09:06:31;148627.56;;;10.29;100.00
6034;BME280;3045;43.226;27.858;2024-02-14T09:08:59;148655.34;;;10.40;100.00
6034;BME280;3045;43.226;27.858;2024-02-14T09:11:28;148654.13;;;10.39;100.00
6034;BME280;3045;43.226;27.858;2024-02-14T09:13:56;148669.25;;;10.45;100.00
6034;BME280;3045;43.226;27.858;2024-02-14T09:16:29;148666.72;;;10.44;100.00
6034;BME280;3045;43.226;27.858;2024-02-14T09:18:57;148659.16;;;10.41;100.00
6034;BME280;3045;43.226;27.858;2024-02-14T09:21:24;148645.22;;;10.36;100.00
6034;BME280;3045;43.226;27.858;2024-02-14T09:23:53;148708.44;;;10.61;100.00
6034;BME280;3045;43.226;27.858;2024-02-14T09:26:20;148728.69;;;10.69;100.00
6034;BME280;3045;43.226;27.858;2024-02-14T09:28:49;148799.47;;;10.97;100.00
6034;BME280;3045;43.226;27.858;2024-02-14T09:31:19;148881.66;;;11.30;100.00
6034;BME280;3045;43.226;27.858;2024-02-14T09:33:47;148890.50;;;11.34;100.00
6034;BME280;3045;43.226;27.858;2024-02-14T09:36:14;148903.16;;;11.39;100.00
6034;BME280;3045;43.226;27.858;2024-02-14T09:38:42;148866.53;;;11.24;100.00
6034;BME280;3045;43.226;27.858;2024-02-14T09:41:15;148860.16;;;11.22;100.00
6034;BME280;3045;43.226;27.858;2024-02-14T09:43:45;148869.00;;;11.25;100.00
6034;BME280;3045;43.226;27.858;2024-02-14T09:46:14;148909.47;;;11.41;100.00
6034;BME280;3045;43.226;27.858;2024-02-14T09:48:43;148875.38;;;11.28;100.00
6034;BME280;3045;43.226;27.858;2024-02-14T09:51:11;148927.22;;;11.49;100.00
6034;BME280;3045;43.226;27.858;2024-02-14T09:53:38;148889.25;;;11.33;100.00
6034;BME280;3045;43.226;27.858;2024-02-14T09:56:09;148856.34;;;11.20;100.00
6034;BME280;3045;43.226;27.858;2024-02-14T09:58:37;148841.19;;;11.14;100.00
6034;BME280;3045;43.226;27.858;2024-02-14T10:01:04;148802.03;;;10.98;100.00
6034;BME280;3045;43.226;27.858;2024-02-14T10:03:33;148703.38;;;10.59;100.00
6034;BME280;3045;43.226;27.858;2024-02-14T10:06:01;148775.44;;;10.88;100.00
6034;BME280;3045;43.226;27.858;2024-02-14T10:08:28;148807.06;;;11.00;100.00
6034;BME280;3045;43.226;27.858;2024-02-14T10:10:56;148776.72;;;10.88;100.00
6034;BME280;3045;43.226;27.858;2024-02-14T10:13:27;148726.16;;;10.68;100.00
6034;BME280;3045;43.226;27.858;2024-02-14T10:15:54;148679.38;;;10.49;100.00
6034;BME280;3045;43.226;27.858;2024-02-14T10:18:22;148685.72;;;10.52;100.00
6034;BME280;3045;43.226;27.858;2024-02-14T10:20:55;148681.91;;;10.50;100.00
6034;BME280;3045;43.226;27.858;2024-02-14T10:23:23;148689.47;;;10.53;100.00
6034;BME280;3045;43.226;27.858;2024-02-14T10:25:50;148709.69;;;10.62;100.00
6034;BME280;3045;43.226;27.858;2024-02-14T10:28:19;148704.66;;;10.60;100.00
6034;BME280;3045;43.226;27.858;2024-02-14T10:30:47;148671.78;;;10.46;100.00
6034;BME280;3045;43.226;27.858;2024-02-14T10:33:15;148651.56;;;10.38;100.00
6034;BME280;3045;43.226;27.858;2024-02-14T10:35:43;148628.81;;;10.29;100.00
6034;BME280;3045;43.226;27.858;2024-02-14T10:38:12;148582.00;;;10.10;100.00
6034;BME280;3045;43.226;27.858;2024-02-14T10:40:39;148563.06;;;10.03;100.00
6034;BME280;3045;43.226;27.858;2024-02-14T10:43:08;148568.13;;;10.05;100.00
6034;BME280;3045;43.226;27.858;2024-02-14T10:45:36;148570.63;;;10.06;100.00
6034;BME280;3045;43.226;27.858;2024-02-14T10:48:04;148532.75;;;9.91;100.00
6034;BME280;3045;43.226;27.858;2024-02-14T10:50:33;148560.50;;;10.02;100.00
6034;BME280;3045;43.226;27.858;2024-02-14T10:53:04;148540.31;;;9.94;100.00
6034;BME280;3045;43.226;27.858;2024-02-14T10:55:34;148550.41;;;9.98;100.00
6034;BME280;3045;43.226;27.858;2024-02-14T10:58:01;148517.56;;;9.85;100.00
6034;BME280;3045;43.226;27.858;2024-02-14T11:00:29;148511.25;;;9.82;100.00
6034;BME280;3045;43.226;27.858;2024-02-14T11:02:58;148520.09;;;9.86;100.00
6034;BME280;3045;43.226;27.858;2024-02-14T11:05:26;148528.94;;;9.89;100.00
6034;BME280;3045;43.226;27.858;2024-02-14T11:07:53;148540.31;;;9.94;100.00
6034;BME280;3045;43.226;27.858;2024-02-14T11:10:22;148584.53;;;10.12;100.00
6034;BME280;3045;43.226;27.858;2024-02-14T11:12:54;148566.88;;;10.04;100.00
6034;BME280;3045;43.226;27.858;2024-02-14T11:15:22;148612.38;;;10.23;100.00
6034;BME280;3045;43.226;27.858;2024-02-14T11:17:50;148640.19;;;10.34;100.00
6034;BME280;3045;43.226;27.858;2024-02-14T11:20:19;148628.81;;;10.29;100.00
6034;BME280;3045;43.226;27.858;2024-02-14T11:22:52;148618.72;;;10.25;100.00
6034;BME280;3045;43.226;27.858;2024-02-14T11:25:23;148626.28;;;10.28;100.00
6034;BME280;3045;43.226;27.858;2024-02-14T11:27:52;148626.28;;;10.28;100.00
6034;BME280;3045;43.226;27.858;2024-02-14T11:30:30;148640.19;;;10.34;100.00
6034;BME280;3045;43.226;27.858;2024-02-14T11:33:15;148606.06;;;10.20;100.00
6034;BME280;3045;43.226;27.858;2024-02-14T11:35:45;148659.16;;;10.41;100.00
6034;BME280;3045;43.226;27.858;2024-02-14T11:38:12;148646.50;;;10.36;100.00
6034;BME280;3045;43.226;27.858;2024-02-14T11:40:39;148601.03;;;10.18;100.00
6034;BME280;3045;43.226;27.858;2024-02-14T11:43:12;148632.63;;;10.31;100.00
6034;BME280;3045;43.226;27.858;2024-02-14T11:45:41;148628.81;;;10.29;100.00
6034;BME280;3045;43.226;27.858;2024-02-14T11:48:09;148625.00;;;10.28;100.00
6034;BME280;3045;43.226;27.858;2024-02-14T11:50:39;148613.63;;;10.23;100.00
6034;BME280;3045;43.226;27.858;2024-02-14T11:53:06;148532.75;;;9.91;100.00
6034;BME280;3045;43.226;27.858;2024-02-14T11:55:36;148580.72;;;10.10;100.00
6034;BME280;3045;43.226;27.858;2024-02-14T11:58:06;148552.94;;;9.99;100.00
6034;BME280;3045;43.226;27.858;2024-02-14T12:00:37;148604.78;;;10.20;100.00
6034;BME280;3045;43.226;27.858;2024-02-14T12:03:06;148621.25;;;10.26;100.00
6034;BME280;3045;43.226;27.858;2024-02-14T12:05:34;148633.84;;;10.31;100.00
6034;BME280;3045;43.226;27.858;2024-02-14T12:08:03;148633.84;;;10.31;100.00
6034;BME280;3045;43.226;27.858;2024-02-14T12:10:31;148628.81;;;10.29;100.00
6034;BME280;3045;43.226;27.858;2024-02-14T12:13:06;148559.25;;;10.01;100.00
6034;BME280;3045;43.226;27.858;2024-02-14T12:15:39;148558.03;;;10.01;100.00
6034;BME280;3045;43.226;27.858;2024-02-14T12:18:06;148582.00;;;10.10;100.00
6034;BME280;3045;43.226;27.858;2024-02-14T12:20:34;148598.50;;;10.17;100.00
6034;BME280;3045;43.226;27.858;2024-02-14T12:23:02;148580.72;;;10.10;100.00
6034;BME280;3045;43.226;27.858;2024-02-14T12:25:30;148580.72;;;10.10;100.00
6034;BME280;3045;43.226;27.858;2024-02-14T12:27:57;148578.25;;;10.09;100.00
6034;BME280;3045;43.226;27.858;2024-02-14T12:30:43;148575.69;;;10.08;100.00
6034;BME280;3045;43.226;27.858;2024-02-14T12:33:12;148573.16;;;10.07;100.00
6034;BME280;3045;43.226;27.858;2024-02-14T12:35:44;148563.06;;;10.03;100.00
6034;BME280;3045;43.226;27.858;2024-02-14T12:38:13;148517.56;;;9.85;100.00
6034;BME280;3045;43.226;27.858;2024-02-14T12:40:41;148460.75;;;9.62;100.00
6034;BME280;3045;43.226;27.858;2024-02-14T12:43:10;148501.16;;;9.78;100.00
6034;BME280;3045;43.226;27.858;2024-02-14T12:45:37;148522.63;;;9.87;100.00
6034;BME280;3045;43.226;27.858;2024-02-14T12:48:07;148528.94;;;9.89;100.00
6034;BME280;3045;43.226;27.858;2024-02-14T12:50:35;148488.50;;;9.73;100.00
6034;BME280;3045;43.226;27.858;2024-02-14T12:53:03;148516.34;;;9.84;100.00
6034;BME280;3045;43.226;27.858;2024-02-14T12:55:30;148504.97;;;9.80;100.00
6034;BME280;3045;43.226;27.858;2024-02-14T12:57:57;148497.34;;;9.77;100.00
6034;BME280;3045;43.226;27.858;2024-02-14T13:00:25;148528.94;;;9.89;100.00
6034;BME280;3045;43.226;27.858;2024-02-14T13:02:52;148513.81;;;9.83;100.00
6034;BME280;3045;43.226;27.858;2024-02-14T13:05:20;148545.38;;;9.96;100.00